Time;durP1;ratioP1;P1;durP2;ratioP2;P2;SDS_P1;SDS_P2;PMS_P1;PMS_P2;Temp;Humidity;BMP_temperature;BMP_pressure;BME280_temperature;BME280_humidity;BME280_pressure;Samples;Min_cycle;Max_cycle;Signal;HPM_P1;HPM_P2
2023/04/19 00:02:02;;;;;;;4.67;3.63;;;9.80;99.90;;;;;;5050449;28;20645;-74
2023/04/19 00:04:29;;;;;;;5.70;3.60;;;9.90;99.90;;;;;;5050408;28;20641;-74
2023/04/19 00:06:57;;;;;;;3.70;3.40;;;9.90;99.90;;;;;;5050309;28;20653;-74
2023/04/19 00:09:24;;;;;;;6.30;5.70;;;10.00;99.50;;;;;;5049259;28;20641;-74
2023/04/19 00:11:50;;;;;;;4.83;4.00;;;9.90;99.90;;;;;;5056676;28;21285;-74
2023/04/19 00:14:17;;;;;;;4.57;4.17;;;9.90;99.90;;;;;;5051657;28;20982;-74
2023/04/19 00:16:44;;;;;;;4.23;3.83;;;9.80;99.90;;;;;;5050519;28;20646;-74
2023/04/19 00:19:12;;;;;;;7.80;5.50;;;9.80;99.90;;;;;;5049332;28;20652;-74
2023/04/19 00:21:39;;;;;;;5.27;3.77;;;9.70;99.90;;;;;;5050259;28;21010;-74
2023/04/19 00:24:06;;;;;;;5.53;4.43;;;9.70;99.90;;;;;;5049227;28;21214;-74
2023/04/19 00:26:33;;;;;;;5.37;3.80;;;9.70;99.90;;;;;;5049883;28;20654;-74
2023/04/19 00:29:00;;;;;;;4.20;3.47;;;9.80;99.90;;;;;;5049243;28;20616;-74
2023/04/19 00:31:26;;;;;;;5.03;4.40;;;9.70;99.90;;;;;;5050231;28;20655;-74
2023/04/19 00:33:53;;;;;;;6.73;4.80;;;9.70;99.90;;;;;;5049856;28;20963;-74
2023/04/19 00:36:21;;;;;;;8.33;4.57;;;9.70;99.90;;;;;;5050033;28;20667;-73
2023/04/19 00:38:48;;;;;;;2.73;2.50;;;9.60;99.90;;;;;;5049145;28;21214;-73
2023/04/19 00:41:15;;;;;;;7.57;3.60;;;9.70;99.90;;;;;;5050306;28;21014;-74
2023/04/19 00:43:42;;;;;;;5.77;3.90;;;9.70;99.90;;;;;;5049684;28;20625;-74
2023/04/19 00:46:09;;;;;;;7.93;3.67;;;9.70;99.90;;;;;;5049749;28;20652;-73
2023/04/19 00:48:36;;;;;;;5.23;4.73;;;9.60;99.90;;;;;;5044519;28;20634;-73
2023/04/19 00:51:26;;;;;;;7.83;4.97;;;9.70;99.90;;;;;;5043665;28;20661;-73
2023/04/19 00:53:54;;;;;;;4.43;3.57;;;9.70;99.90;;;;;;5048166;28;21216;-73
2023/04/19 00:56:41;;;;;;;3.43;2.70;;;9.60;99.90;;;;;;5014854;28;20748;-73
2023/04/19 00:59:10;;;;;;;5.07;3.87;;;9.60;99.90;;;;;;5045746;28;20655;-73
2023/04/19 01:01:37;;;;;;;4.20;2.97;;;9.70;99.90;;;;;;5048516;28;20656;-73
2023/04/19 01:04:05;;;;;;;6.13;4.87;;;9.70;99.90;;;;;;5049043;28;20684;-74
2023/04/19 01:06:33;;;;;;;5.87;4.37;;;9.60;99.90;;;;;;5048007;28;20663;-74
2023/04/19 01:09:00;;;;;;;5.37;4.30;;;9.60;99.90;;;;;;5037802;28;20623;-73
2023/04/19 01:11:28;;;;;;;5.17;4.63;;;9.70;99.90;;;;;;5049504;28;20772;-73
2023/04/19 01:13:57;;;;;;;4.37;3.43;;;9.60;99.90;;;;;;5049114;28;20731;-73
2023/04/19 01:16:25;;;;;;;4.13;3.63;;;9.70;99.90;;;;;;5049254;28;20655;-74
2023/04/19 01:18:54;;;;;;;4.20;3.73;;;9.60;99.90;;;;;;5048380;28;20636;-73
2023/04/19 01:21:21;;;;;;;4.17;3.70;;;9.70;99.90;;;;;;5049045;28;20666;-73
2023/04/19 01:23:51;;;;;;;4.80;3.90;;;9.60;99.90;;;;;;5046922;28;20634;-73
2023/04/19 01:26:19;;;;;;;4.43;3.83;;;9.60;99.90;;;;;;5038851;28;20648;-73
2023/04/19 01:28:47;;;;;;;3.97;3.67;;;9.50;99.90;;;;;;5048138;28;20638;-73
2023/04/19 01:31:15;;;;;;;7.90;5.03;;;9.50;99.90;;;;;;5048107;28;20652;-73
2023/04/19 01:33:42;;;;;;;4.07;3.23;;;9.50;99.90;;;;;;5048745;28;21206;-74
2023/04/19 01:36:09;;;;;;;6.23;3.93;;;9.60;99.90;;;;;;5047949;28;20663;-74
2023/04/19 01:38:36;;;;;;;6.07;4.67;;;9.50;99.90;;;;;;5047231;28;20621;-73
2023/04/19 01:41:05;;;;;;;4.70;4.30;;;9.50;99.90;;;;;;5044671;28;20688;-73
2023/04/19 01:43:33;;;;;;;3.93;3.63;;;9.40;99.90;;;;;;5048862;28;20682;-74
2023/04/19 01:46:00;;;;;;;4.17;3.80;;;9.40;99.90;;;;;;5048465;28;20722;-74
2023/04/19 01:48:27;;;;;;;7.20;3.27;;;9.30;99.90;;;;;;5048215;28;21040;-73
2023/04/19 01:50:56;;;;;;;6.50;5.73;;;9.40;99.90;;;;;;5048138;28;21018;-75
2023/04/19 01:53:24;;;;;;;7.00;3.97;;;9.40;99.90;;;;;;5048068;28;20651;-74
2023/04/19 01:55:51;;;;;;;4.70;4.30;;;9.50;99.90;;;;;;5048282;28;20672;-74
2023/04/19 01:58:20;;;;;;;7.00;4.67;;;9.50;99.90;;;;;;5043391;28;20625;-73
2023/04/19 02:00:47;;;;;;;4.50;3.13;;;9.50;99.90;;;;;;5039362;28;20657;-74
2023/04/19 02:03:15;;;;;;;7.50;4.37;;;9.50;99.90;;;;;;5047770;28;20629;-74
2023/04/19 02:05:43;;;;;;;4.47;3.67;;;9.50;99.90;;;;;;5047871;28;21291;-74
2023/04/19 02:08:10;;;;;;;12.40;4.90;;;9.40;99.90;;;;;;5046968;28;20968;-74
2023/04/19 02:10:38;;;;;;;6.97;6.20;;;9.40;99.90;;;;;;5048243;28;20659;-74
2023/04/19 02:13:05;;;;;;;5.30;2.83;;;9.40;99.90;;;;;;5048462;28;21000;-74
2023/04/19 02:15:33;;;;;;;4.33;3.70;;;9.40;99.90;;;;;;5047925;28;20759;-74
2023/04/19 02:18:00;;;;;;;6.30;4.90;;;9.40;99.90;;;;;;5047629;28;21205;-73
2023/04/19 02:20:27;;;;;;;5.33;4.50;;;9.30;99.90;;;;;;5047543;28;20676;-75
2023/04/19 02:22:53;;;;;;;4.60;3.70;;;9.30;99.90;;;;;;5047473;28;20625;-74
2023/04/19 02:25:20;;;;;;;7.43;3.97;;;9.40;99.90;;;;;;5047842;28;20631;-74
2023/04/19 02:27:47;;;;;;;7.67;5.10;;;9.30;99.90;;;;;;5048097;28;20623;-75
2023/04/19 02:30:15;;;;;;;5.97;5.40;;;9.30;99.90;;;;;;5047271;28;20636;-75
2023/04/19 02:32:44;;;;;;;5.37;4.47;;;9.30;99.90;;;;;;5047753;28;20719;-74
2023/04/19 02:35:12;;;;;;;3.53;3.23;;;9.30;99.90;;;;;;5046946;28;20632;-75
2023/04/19 02:37:42;;;;;;;4.77;4.37;;;9.30;99.90;;;;;;5048316;28;20631;-74
2023/04/19 02:40:11;;;;;;;8.23;5.00;;;9.30;99.90;;;;;;5046610;28;20644;-75
2023/04/19 02:42:38;;;;;;;7.07;4.73;;;9.20;99.90;;;;;;5047423;28;20679;-73
2023/04/19 02:45:06;;;;;;;6.80;5.33;;;9.20;99.90;;;;;;5047987;28;20637;-73
2023/04/19 02:47:34;;;;;;;4.33;4.00;;;9.20;99.90;;;;;;5047537;28;20624;-73
2023/04/19 02:50:03;;;;;;;6.17;4.53;;;9.30;99.90;;;;;;5046477;28;20630;-73
2023/04/19 02:52:31;;;;;;;5.10;4.10;;;9.20;99.90;;;;;;5047891;28;20708;-73
2023/04/19 02:54:58;;;;;;;6.87;5.60;;;9.30;99.90;;;;;;5047288;28;21059;-74
2023/04/19 02:57:25;;;;;;;4.10;3.83;;;9.20;99.90;;;;;;5047867;28;21088;-73
2023/04/19 02:59:54;;;;;;;3.73;2.73;;;9.20;99.90;;;;;;5046769;28;20736;-73
2023/04/19 03:02:21;;;;;;;7.40;4.30;;;9.30;99.90;;;;;;5047158;28;21320;-74
2023/04/19 03:04:49;;;;;;;6.07;3.80;;;9.20;99.90;;;;;;5047499;28;20635;-74
2023/04/19 03:07:18;;;;;;;6.70;5.50;;;9.20;99.90;;;;;;5047263;28;20820;-74
2023/04/19 03:09:46;;;;;;;9.30;7.50;;;9.20;99.90;;;;;;5046886;28;20628;-73
2023/04/19 03:12:13;;;;;;;6.23;4.90;;;9.20;99.90;;;;;;5029516;28;20656;-74
2023/04/19 03:14:41;;;;;;;6.43;5.00;;;9.10;99.90;;;;;;5047208;28;20711;-74
2023/04/19 03:17:09;;;;;;;6.00;4.87;;;9.10;99.90;;;;;;5047275;28;20683;-74
2023/04/19 03:19:36;;;;;;;8.43;4.43;;;9.10;99.90;;;;;;5047078;28;20633;-74
2023/04/19 03:22:03;;;;;;;6.30;5.70;;;9.10;99.90;;;;;;5047320;28;21247;-74
2023/04/19 03:24:31;;;;;;;6.87;3.90;;;9.10;99.90;;;;;;5047496;28;20648;-74
2023/04/19 03:26:58;;;;;;;5.73;4.20;;;9.00;99.90;;;;;;5046893;28;21061;-74
2023/04/19 03:29:26;;;;;;;5.20;4.23;;;9.00;99.90;;;;;;5046264;28;21108;-74
2023/04/19 03:31:52;;;;;;;4.37;4.03;;;9.00;99.90;;;;;;5047683;28;21013;-75
2023/04/19 03:34:19;;;;;;;6.37;5.23;;;9.00;99.90;;;;;;5047177;28;20624;-75
2023/04/19 03:36:46;;;;;;;5.80;4.60;;;9.00;99.90;;;;;;5047003;28;20668;-75
2023/04/19 03:39:13;;;;;;;5.17;4.30;;;8.90;99.90;;;;;;5046126;28;21234;-74
2023/04/19 03:41:41;;;;;;;7.37;4.90;;;8.90;99.90;;;;;;5034738;28;20668;-74
2023/04/19 03:44:08;;;;;;;7.07;4.77;;;8.90;99.90;;;;;;5044694;28;20643;-74
2023/04/19 03:46:35;;;;;;;6.23;4.00;;;8.90;99.90;;;;;;5046735;28;20670;-75
2023/04/19 03:49:01;;;;;;;6.80;5.50;;;8.90;99.90;;;;;;5046648;28;20667;-74
2023/04/19 03:51:28;;;;;;;4.73;4.33;;;8.90;99.90;;;;;;5047230;28;20655;-75
2023/04/19 03:53:55;;;;;;;4.70;4.20;;;8.80;99.90;;;;;;5047438;28;20639;-75
2023/04/19 03:56:22;;;;;;;5.40;3.63;;;8.80;99.90;;;;;;5046050;28;20700;-75
2023/04/19 03:58:52;;;;;;;4.10;3.60;;;8.80;99.90;;;;;;5038109;28;20630;-74
2023/04/19 04:01:19;;;;;;;5.90;4.80;;;8.80;99.90;;;;;;5041584;28;20778;-74
2023/04/19 04:03:46;;;;;;;5.60;5.10;;;8.70;99.90;;;;;;5050792;28;20636;-74
2023/04/19 04:06:12;;;;;;;5.27;4.27;;;8.70;99.90;;;;;;5050150;28;21247;-75
2023/04/19 04:08:39;;;;;;;6.17;4.37;;;8.70;99.90;;;;;;5050245;28;20742;-74
2023/04/19 04:11:06;;;;;;;5.10;3.80;;;8.70;99.90;;;;;;5049439;28;21222;-75
2023/04/19 04:13:33;;;;;;;8.27;4.90;;;8.70;99.90;;;;;;5049207;28;20639;-74
2023/04/19 04:16:01;;;;;;;6.70;6.07;;;8.70;99.90;;;;;;5049953;28;20671;-75
2023/04/19 04:18:28;;;;;;;6.23;3.93;;;8.70;99.90;;;;;;5049592;28;20651;-74
2023/04/19 04:20:55;;;;;;;4.30;3.97;;;8.70;99.90;;;;;;5053301;28;20662;-74
2023/04/19 04:23:22;;;;;;;6.07;4.40;;;8.70;99.90;;;;;;5070107;28;20628;-73
2023/04/19 04:25:56;;;;;;;7.90;5.07;;;8.70;99.90;;;;;;5067185;28;20662;-75
2023/04/19 04:28:23;;;;;;;5.03;4.30;;;8.70;99.90;;;;;;5049682;28;20622;-74
2023/04/19 04:30:50;;;;;;;6.50;5.83;;;8.60;99.90;;;;;;5050263;28;21028;-74
2023/04/19 04:33:18;;;;;;;10.17;6.03;;;8.50;99.90;;;;;;5053348;28;20780;-74
2023/04/19 04:35:46;;;;;;;5.50;4.30;;;8.50;99.90;;;;;;5067906;28;20643;-74
2023/04/19 04:38:13;;;;;;;6.63;6.00;;;8.30;99.90;;;;;;5049163;28;20640;-74
2023/04/19 04:40:40;;;;;;;9.70;7.00;;;8.30;99.90;;;;;;5046423;28;20657;-74
2023/04/19 04:43:07;;;;;;;5.53;5.10;;;8.30;99.90;;;;;;5050212;28;21029;-74
2023/04/19 04:45:34;;;;;;;4.83;4.40;;;8.30;99.90;;;;;;5049640;28;21016;-74
2023/04/19 04:48:00;;;;;;;5.20;4.47;;;8.40;99.90;;;;;;5049496;28;20629;-73
2023/04/19 04:50:29;;;;;;;5.43;4.90;;;8.40;99.90;;;;;;5049065;28;20663;-74
2023/04/19 04:52:55;;;;;;;6.20;4.67;;;8.40;99.90;;;;;;5049069;28;20651;-74
2023/04/19 04:55:22;;;;;;;4.93;4.03;;;8.40;99.90;;;;;;5049392;28;21212;-74
2023/04/19 04:57:49;;;;;;;10.63;6.30;;;8.50;99.90;;;;;;5048786;28;20668;-74
2023/04/19 05:00:16;;;;;;;6.50;4.73;;;8.50;99.90;;;;;;5049917;28;20635;-74
2023/04/19 05:02:43;;;;;;;7.47;6.70;;;8.50;99.90;;;;;;5049311;28;20625;-74
2023/04/19 05:05:11;;;;;;;7.40;6.53;;;8.50;99.90;;;;;;5049065;28;21178;-74
2023/04/19 05:07:39;;;;;;;5.67;5.13;;;8.60;99.90;;;;;;5049326;28;20625;-74
2023/04/19 05:10:07;;;;;;;6.60;6.00;;;8.70;99.90;;;;;;5049082;28;20626;-74
2023/04/19 05:12:34;;;;;;;6.83;5.50;;;8.70;99.90;;;;;;5048736;28;20633;-74
2023/04/19 05:15:01;;;;;;;5.70;3.83;;;8.70;99.90;;;;;;5049046;28;20627;-73
2023/04/19 05:17:28;;;;;;;5.13;4.63;;;8.70;99.90;;;;;;5048573;28;21240;-72
2023/04/19 05:19:55;;;;;;;4.80;4.40;;;8.70;99.90;;;;;;5047881;28;20709;-72
2023/04/19 05:22:21;;;;;;;8.00;6.07;;;8.80;99.90;;;;;;5049106;28;20654;-72
2023/04/19 05:24:50;;;;;;;7.27;5.40;;;8.80;99.90;;;;;;5048704;28;21196;-72
2023/04/19 05:27:17;;;;;;;8.17;5.00;;;8.80;99.90;;;;;;5044629;28;20759;-71
2023/04/19 05:29:43;;;;;;;5.23;4.73;;;8.90;99.90;;;;;;5048743;28;21039;-72
2023/04/19 05:32:10;;;;;;;10.77;6.47;;;8.80;99.90;;;;;;5048341;28;21228;-72
2023/04/19 05:34:37;;;;;;;6.30;3.67;;;8.80;99.90;;;;;;5048704;28;20742;-71
2023/04/19 05:37:06;;;;;;;5.97;3.67;;;8.80;99.90;;;;;;5047908;28;20688;-70
2023/04/19 05:39:33;;;;;;;5.20;4.77;;;8.80;99.90;;;;;;5047113;28;20628;-73
2023/04/19 05:42:01;;;;;;;7.27;5.00;;;8.80;99.90;;;;;;5048218;28;20659;-73
2023/04/19 05:44:28;;;;;;;6.93;5.47;;;8.70;99.90;;;;;;5048425;28;20644;-74
2023/04/19 05:46:55;;;;;;;7.97;6.57;;;8.70;99.90;;;;;;5047680;28;20661;-73
2023/04/19 05:49:21;;;;;;;6.73;5.10;;;8.80;99.90;;;;;;5047759;28;20640;-73
2023/04/19 05:51:48;;;;;;;10.97;7.67;;;8.80;99.90;;;;;;5048508;28;20659;-74
2023/04/19 05:54:16;;;;;;;5.27;4.57;;;8.80;99.90;;;;;;5048165;28;21093;-74
2023/04/19 05:56:51;;;;;;;8.23;4.50;;;8.80;99.90;;;;;;5046855;28;21255;-74
2023/04/19 05:59:20;;;;;;;6.63;4.97;;;8.80;99.90;;;;;;5038609;28;20982;-74
2023/04/19 06:01:46;;;;;;;5.40;4.97;;;8.80;99.90;;;;;;5048377;28;20689;-74
2023/04/19 06:04:13;;;;;;;6.07;5.13;;;8.80;99.90;;;;;;5034765;28;20672;-74
2023/04/19 06:06:40;;;;;;;8.17;5.20;;;8.80;99.90;;;;;;5051738;28;20645;-74
2023/04/19 06:09:07;;;;;;;6.93;5.00;;;8.80;99.90;;;;;;5047102;28;20630;-74
2023/04/19 06:11:33;;;;;;;4.67;4.27;;;8.80;99.90;;;;;;5047772;28;20654;-73
2023/04/19 06:14:00;;;;;;;4.07;3.63;;;8.90;99.90;;;;;;5049103;28;20635;-75
2023/04/19 06:16:28;;;;;;;6.07;4.50;;;8.80;99.90;;;;;;5047793;28;20671;-74
2023/04/19 06:18:55;;;;;;;5.70;5.00;;;8.90;99.90;;;;;;5047248;28;20668;-74
2023/04/19 06:21:22;;;;;;;6.30;5.13;;;8.90;99.90;;;;;;5046030;28;21272;-74
2023/04/19 06:23:49;;;;;;;8.27;5.50;;;8.90;99.90;;;;;;5047954;28;20676;-76
2023/04/19 06:26:15;;;;;;;7.03;4.53;;;8.90;99.90;;;;;;5047030;28;21271;-74
2023/04/19 06:28:42;;;;;;;8.63;4.37;;;8.90;99.90;;;;;;5045880;28;20629;-74
2023/04/19 06:31:09;;;;;;;7.00;5.93;;;8.90;99.90;;;;;;5046817;28;20649;-74
2023/04/19 06:33:37;;;;;;;5.50;4.40;;;9.00;99.90;;;;;;5047142;28;20643;-75
2023/04/19 06:36:05;;;;;;;7.27;5.77;;;9.00;99.90;;;;;;5047960;28;20692;-75
2023/04/19 06:38:31;;;;;;;8.07;5.30;;;9.10;99.90;;;;;;5044899;28;20769;-75
2023/04/19 06:40:58;;;;;;;10.13;5.40;;;9.00;99.90;;;;;;5045362;28;20655;-74
2023/04/19 06:43:25;;;;;;;6.03;5.00;;;9.00;99.90;;;;;;5042369;28;20621;-74
2023/04/19 06:45:58;;;;;;;8.13;5.10;;;9.10;99.90;;;;;;5046584;28;21090;-75
2023/04/19 06:48:25;;;;;;;4.17;3.80;;;9.10;99.90;;;;;;5037028;28;20648;-74
2023/04/19 06:50:53;;;;;;;6.37;4.30;;;9.10;99.90;;;;;;5055241;28;21250;-75
2023/04/19 06:53:20;;;;;;;11.80;4.97;;;9.20;99.90;;;;;;5047038;28;20636;-74
2023/04/19 06:55:47;;;;;;;11.20;5.87;;;9.30;99.90;;;;;;5045190;28;20652;-74
2023/04/19 06:58:14;;;;;;;5.50;4.70;;;9.20;99.90;;;;;;5042618;28;20712;-74
2023/04/19 07:00:40;;;;;;;4.97;4.53;;;9.20;99.90;;;;;;5038920;28;20745;-75
2023/04/19 07:03:07;;;;;;;3.93;3.20;;;9.10;99.90;;;;;;5047465;28;20733;-74
2023/04/19 07:05:36;;;;;;;7.50;5.00;;;9.20;99.90;;;;;;5046882;28;20644;-74
2023/04/19 07:08:04;;;;;;;5.10;4.60;;;9.20;99.90;;;;;;5046712;28;20629;-74
2023/04/19 07:10:31;;;;;;;3.80;3.50;;;9.20;99.90;;;;;;5046370;28;20653;-77
2023/04/19 07:12:58;;;;;;;5.37;3.90;;;9.20;99.90;;;;;;5047233;28;20629;-75
2023/04/19 07:15:25;;;;;;;6.80;6.03;;;9.20;99.90;;;;;;5038201;28;21010;-75
2023/04/19 07:17:51;;;;;;;8.83;4.60;;;9.20;99.90;;;;;;5040194;28;20656;-75
2023/04/19 07:20:18;;;;;;;4.83;3.70;;;9.20;99.90;;;;;;5053166;28;21061;-75
2023/04/19 07:22:45;;;;;;;6.17;4.77;;;9.20;99.90;;;;;;5047115;28;20628;-75
2023/04/19 07:25:14;;;;;;;7.97;5.43;;;9.20;99.90;;;;;;5038530;28;20635;-75
2023/04/19 07:27:41;;;;;;;6.97;4.80;;;9.40;99.90;;;;;;5037730;28;20634;-75
2023/04/19 07:30:09;;;;;;;5.17;4.67;;;9.50;99.90;;;;;;5038058;28;20632;-75
2023/04/19 07:32:36;;;;;;;8.57;4.97;;;9.50;99.90;;;;;;5036741;28;20645;-75
2023/04/19 07:35:03;;;;;;;8.33;6.50;;;9.70;99.90;;;;;;5041635;28;20973;-75
2023/04/19 07:37:30;;;;;;;14.93;5.67;;;9.80;99.90;;;;;;5039090;28;21597;-75
2023/04/19 07:39:57;;;;;;;6.47;5.83;;;9.70;99.90;;;;;;5041893;28;21231;-75
2023/04/19 07:42:25;;;;;;;9.30;6.70;;;9.90;99.90;;;;;;5042556;28;21254;-75
2023/04/19 07:44:52;;;;;;;4.90;4.40;;;10.00;99.90;;;;;;5038948;28;20647;-75
2023/04/19 07:47:19;;;;;;;6.40;4.70;;;10.10;99.90;;;;;;5045547;28;21236;-72
2023/04/19 07:49:45;;;;;;;7.50;3.87;;;10.20;99.90;;;;;;5049853;28;20634;-74
2023/04/19 07:52:12;;;;;;;7.23;4.30;;;10.10;99.90;;;;;;5050688;28;20654;-74
2023/04/19 07:54:39;;;;;;;5.93;4.10;;;10.30;99.90;;;;;;5050481;28;20624;-73
2023/04/19 07:57:06;;;;;;;7.60;4.93;;;10.40;99.90;;;;;;5048683;28;20682;-72
2023/04/19 07:59:34;;;;;;;5.27;4.50;;;10.50;99.70;;;;;;5049692;28;20621;-76
2023/04/19 08:02:01;;;;;;;5.37;4.70;;;10.50;99.80;;;;;;5050055;28;20661;-75
2023/04/19 08:04:28;;;;;;;5.17;3.70;;;10.40;99.50;;;;;;5050268;28;20626;-74
2023/04/19 08:06:55;;;;;;;5.50;4.90;;;10.40;99.50;;;;;;5042712;28;20665;-75
2023/04/19 08:09:22;;;;;;;6.40;4.67;;;10.60;99.20;;;;;;5043242;28;20624;-74
2023/04/19 08:11:48;;;;;;;9.50;5.57;;;10.70;99.30;;;;;;5050011;28;20665;-74
2023/04/19 08:14:15;;;;;;;8.57;4.37;;;10.80;99.10;;;;;;5050048;28;20629;-73
2023/04/19 08:16:43;;;;;;;7.23;4.27;;;10.90;99.10;;;;;;5049090;28;20714;-73
2023/04/19 08:19:10;;;;;;;5.90;4.60;;;11.00;98.90;;;;;;5048900;28;20661;-72
2023/04/19 08:21:37;;;;;;;8.70;4.17;;;11.20;99.20;;;;;;5049781;28;20658;-73
2023/04/19 08:24:04;;;;;;;6.80;5.03;;;11.30;99.00;;;;;;5050345;28;20639;-72
2023/04/19 08:26:31;;;;;;;7.13;4.60;;;11.40;97.70;;;;;;5050250;28;20680;-72
2023/04/19 08:28:58;;;;;;;3.27;2.93;;;11.40;97.40;;;;;;5049225;28;20634;-73
2023/04/19 08:31:25;;;;;;;5.23;3.50;;;11.40;97.60;;;;;;5044270;28;20654;-72
2023/04/19 08:33:53;;;;;;;5.60;3.47;;;11.50;97.70;;;;;;5039350;28;21245;-73
2023/04/19 08:36:20;;;;;;;6.60;4.33;;;11.40;98.00;;;;;;5049738;28;20654;-72
2023/04/19 08:38:47;;;;;;;8.80;4.60;;;11.40;98.00;;;;;;5048666;28;21019;-73
2023/04/19 08:41:15;;;;;;;7.10;3.97;;;11.50;97.90;;;;;;5048874;28;20656;-72
2023/04/19 08:43:45;;;;;;;3.77;3.20;;;11.50;97.30;;;;;;5052481;28;20653;-72
2023/04/19 08:46:12;;;;;;;4.47;2.87;;;11.40;97.00;;;;;;5031535;28;20662;-72
2023/04/19 08:48:41;;;;;;;6.80;3.80;;;11.40;97.00;;;;;;5047653;28;20633;-72
2023/04/19 08:51:12;;;;;;;4.37;3.60;;;11.50;97.30;;;;;;5042728;28;20651;-72
2023/04/19 08:53:40;;;;;;;6.33;3.80;;;11.60;97.50;;;;;;5049402;28;21292;-73
2023/04/19 08:56:08;;;;;;;5.20;3.70;;;11.60;96.70;;;;;;5047084;28;21230;-72
2023/04/19 08:58:35;;;;;;;6.27;4.20;;;11.70;96.30;;;;;;5047505;28;20751;-74
2023/04/19 09:01:04;;;;;;;5.97;3.47;;;11.70;96.10;;;;;;5047164;28;20654;-75
2023/04/19 09:03:31;;;;;;;6.03;3.90;;;11.60;95.30;;;;;;5047080;28;20760;-75
2023/04/19 09:05:58;;;;;;;4.57;3.70;;;11.80;95.40;;;;;;5048412;28;20638;-72
2023/04/19 09:08:27;;;;;;;6.70;3.47;;;11.80;95.60;;;;;;5044009;28;20632;-72
2023/04/19 09:10:55;;;;;;;4.90;4.40;;;11.70;96.20;;;;;;5048223;28;20654;-72
2023/04/19 09:13:23;;;;;;;4.50;4.10;;;11.80;95.40;;;;;;5046593;28;20660;-72
2023/04/19 09:15:52;;;;;;;5.73;3.60;;;11.90;94.60;;;;;;5049102;28;20756;-72
2023/04/19 09:18:19;;;;;;;4.00;3.60;;;11.80;94.40;;;;;;5052340;28;20758;-72
2023/04/19 09:20:47;;;;;;;5.73;4.10;;;11.80;94.60;;;;;;5066050;28;20645;-72
2023/04/19 09:23:15;;;;;;;4.07;3.67;;;11.80;94.60;;;;;;5048555;28;20993;-72
2023/04/19 09:25:53;;;;;;;4.67;3.70;;;11.90;94.80;;;;;;5048569;28;20654;-72
2023/04/19 09:28:20;;;;;;;4.23;3.10;;;12.00;94.20;;;;;;5047959;28;20628;-72
2023/04/19 09:30:49;;;;;;;8.90;3.40;;;12.10;93.50;;;;;;5047233;28;21048;-72
2023/04/19 09:33:31;;;;;;;2.90;2.70;;;11.90;93.80;;;;;;5048765;28;21239;-72
2023/04/19 09:35:59;;;;;;;3.60;3.00;;;12.10;94.80;;;;;;5048432;28;20664;-72
2023/04/19 09:38:26;;;;;;;4.97;2.93;;;12.30;93.80;;;;;;5047363;28;21198;-72
2023/04/19 09:41:06;;;;;;;6.50;4.30;;;12.30;95.00;;;;;;5048719;28;20649;-76
2023/04/19 09:43:34;;;;;;;3.90;2.83;;;12.40;93.80;;;;;;5048464;28;20636;-76
2023/04/19 09:46:00;;;;;;;4.47;3.43;;;12.40;94.70;;;;;;5048552;28;20973;-76
2023/04/19 09:48:27;;;;;;;8.70;4.10;;;12.40;93.70;;;;;;5046842;28;21160;-76
2023/04/19 09:50:55;;;;;;;4.17;3.30;;;12.40;94.60;;;;;;5049000;28;20677;-75
2023/04/19 09:53:23;;;;;;;4.80;3.80;;;12.50;94.00;;;;;;5048969;28;20620;-75
2023/04/19 09:55:52;;;;;;;4.20;3.77;;;12.40;94.00;;;;;;5048791;28;21119;-76
2023/04/19 09:58:21;;;;;;;4.93;4.10;;;12.50;95.10;;;;;;5044127;28;20670;-74
2023/04/19 10:00:50;;;;;;;6.40;5.57;;;12.50;94.60;;;;;;5068684;28;20659;-75
2023/04/19 10:03:18;;;;;;;4.27;2.70;;;12.20;94.50;;;;;;5067780;28;20637;-75
2023/04/19 10:05:46;;;;;;;6.07;3.97;;;12.60;95.80;;;;;;5048655;28;20753;-75
2023/04/19 10:08:13;;;;;;;4.80;4.03;;;12.60;95.00;;;;;;5047854;28;20624;-73
2023/04/19 10:10:41;;;;;;;4.13;3.50;;;12.90;94.80;;;;;;5047958;28;20727;-74
2023/04/19 10:13:11;;;;;;;5.77;3.50;;;13.00;94.60;;;;;;5041783;28;21019;-71
2023/04/19 10:15:41;;;;;;;5.83;4.37;;;12.90;93.60;;;;;;5046103;28;20664;-71
2023/04/19 10:18:09;;;;;;;3.27;2.97;;;12.90;93.70;;;;;;5047670;28;21022;-71
2023/04/19 10:20:41;;;;;;;3.80;2.70;;;12.70;93.30;;;;;;5047863;28;20649;-71
2023/04/19 10:23:09;;;;;;;2.53;2.33;;;12.60;92.50;;;;;;5048084;28;21158;-71
2023/04/19 10:25:38;;;;;;;3.80;3.50;;;12.20;93.20;;;;;;5047558;28;21229;-73
2023/04/19 10:28:05;;;;;;;3.47;2.83;;;12.20;93.50;;;;;;5042708;28;20628;-72
2023/04/19 10:30:31;;;;;;;4.80;3.20;;;12.40;93.70;;;;;;5035503;28;20745;-73
2023/04/19 10:33:02;;;;;;;4.10;3.13;;;12.60;93.90;;;;;;5048174;28;20636;-73
2023/04/19 10:35:36;;;;;;;5.20;4.70;;;12.70;93.60;;;;;;5047845;28;20641;-73
2023/04/19 10:38:05;;;;;;;3.73;3.27;;;12.40;92.90;;;;;;5046779;28;20651;-73
2023/04/19 10:40:55;;;;;;;6.77;4.43;;;12.60;93.60;;;;;;5047742;28;21002;-73
2023/04/19 10:43:26;;;;;;;4.40;3.60;;;13.20;92.00;;;;;;5033862;28;20711;-72
2023/04/19 10:45:53;;;;;;;6.10;3.60;;;13.30;91.50;;;;;;5047569;28;20665;-73
2023/04/19 10:48:39;;;;;;;3.93;3.30;;;13.50;91.40;;;;;;5047586;28;20645;-73
2023/04/19 10:51:14;;;;;;;7.07;4.13;;;13.30;92.60;;;;;;5046988;28;20661;-73
2023/04/19 10:53:49;;;;;;;4.83;4.30;;;13.00;93.10;;;;;;5047923;28;20703;-73
2023/04/19 10:56:17;;;;;;;3.90;3.47;;;12.90;93.10;;;;;;5042425;28;21248;-73
2023/04/19 10:59:14;;;;;;;6.27;3.57;;;12.50;93.20;;;;;;5039841;28;21022;-73
2023/04/19 11:01:42;;;;;;;4.50;3.33;;;12.50;93.90;;;;;;5047745;28;20664;-73
2023/04/19 11:04:11;;;;;;;4.20;2.90;;;12.50;93.70;;;;;;5048001;28;21163;-73
2023/04/19 11:06:56;;;;;;;5.43;3.33;;;12.70;93.70;;;;;;5047311;28;21274;-73
2023/04/19 11:09:23;;;;;;;4.60;4.03;;;12.70;93.70;;;;;;5049200;28;20629;-73
2023/04/19 11:11:50;;;;;;;3.53;2.53;;;12.70;93.80;;;;;;5051295;28;20657;-73
2023/04/19 11:14:17;;;;;;;3.47;2.80;;;12.50;93.50;;;;;;5051513;28;20634;-73
2023/04/19 11:16:47;;;;;;;8.10;4.23;;;12.40;94.00;;;;;;5051382;28;20661;-73
2023/04/19 11:19:16;;;;;;;5.93;3.27;;;12.50;93.50;;;;;;5050958;28;20662;-72
2023/04/19 11:21:45;;;;;;;7.37;3.70;;;12.50;94.30;;;;;;5051081;28;20644;-73
2023/04/19 11:24:14;;;;;;;3.47;3.10;;;12.20;93.80;;;;;;5049765;28;20633;-73
2023/04/19 11:26:42;;;;;;;6.03;3.47;;;12.00;94.40;;;;;;5047355;28;20680;-74
2023/04/19 11:29:10;;;;;;;5.67;4.30;;;12.20;94.80;;;;;;5043151;28;20659;-73
2023/04/19 11:31:37;;;;;;;3.80;2.50;;;12.30;94.70;;;;;;5051012;28;20653;-74
2023/04/19 11:34:04;;;;;;;6.20;4.47;;;12.40;93.90;;;;;;5050597;28;20687;-73
2023/04/19 11:36:35;;;;;;;3.40;3.10;;;12.40;93.60;;;;;;5050901;28;20653;-73
2023/04/19 11:39:02;;;;;;;5.43;4.90;;;12.40;93.60;;;;;;5054560;28;21105;-73
2023/04/19 11:41:29;;;;;;;5.07;3.60;;;12.30;93.80;;;;;;5038623;28;20839;-73
2023/04/19 11:43:56;;;;;;;6.03;3.67;;;12.20;93.80;;;;;;5050816;28;20647;-74
2023/04/19 11:46:23;;;;;;;4.93;4.30;;;12.00;94.60;;;;;;5050457;28;21248;-74
2023/04/19 11:48:51;;;;;;;11.40;3.73;;;11.80;94.60;;;;;;5050333;28;20643;-74
2023/04/19 11:51:19;;;;;;;4.10;3.63;;;11.70;95.10;;;;;;5050872;28;20653;-74
2023/04/19 11:53:47;;;;;;;5.17;3.00;;;11.60;95.50;;;;;;5049040;28;20643;-73
2023/04/19 11:56:15;;;;;;;4.03;3.37;;;11.60;95.80;;;;;;5051215;28;20656;-72
2023/04/19 11:58:44;;;;;;;5.60;3.97;;;11.60;95.70;;;;;;5040274;28;21139;-72
2023/04/19 12:01:12;;;;;;;5.90;4.37;;;11.60;95.80;;;;;;5045862;28;20660;-72
2023/04/19 12:03:41;;;;;;;4.30;3.83;;;11.60;95.80;;;;;;5050131;28;20983;-72
2023/04/19 12:06:11;;;;;;;6.07;4.30;;;11.50;96.30;;;;;;5049435;28;20668;-72
2023/04/19 12:08:39;;;;;;;5.80;3.80;;;11.30;96.70;;;;;;5048977;28;20632;-72
2023/04/19 12:11:07;;;;;;;7.40;3.80;;;11.30;97.40;;;;;;5050192;28;21082;-72
2023/04/19 12:13:35;;;;;;;3.43;3.23;;;11.20;97.30;;;;;;5049740;28;21212;-72
2023/04/19 12:16:02;;;;;;;4.83;4.30;;;11.00;98.10;;;;;;5049950;28;20664;-72
2023/04/19 12:18:42;;;;;;;7.40;5.23;;;11.00;98.40;;;;;;5049316;28;21246;-72
2023/04/19 12:21:09;;;;;;;5.20;4.67;;;10.90;99.10;;;;;;5049012;28;21250;-72
2023/04/19 12:23:36;;;;;;;6.97;4.73;;;10.90;99.60;;;;;;5050085;28;20665;-72
2023/04/19 12:26:05;;;;;;;5.00;4.50;;;10.90;99.90;;;;;;5050380;28;20665;-72
2023/04/19 12:28:33;;;;;;;4.77;3.90;;;10.70;99.90;;;;;;5049298;28;21168;-72
2023/04/19 12:31:00;;;;;;;7.33;5.30;;;10.60;99.90;;;;;;5045274;28;20649;-71
2023/04/19 12:33:27;;;;;;;4.17;3.60;;;10.50;99.90;;;;;;5049682;28;20632;-71
2023/04/19 12:35:53;;;;;;;6.90;5.40;;;10.50;99.90;;;;;;5044622;28;21227;-73
2023/04/19 12:38:20;;;;;;;6.47;5.50;;;10.30;99.90;;;;;;5039783;28;20970;-72
2023/04/19 12:40:47;;;;;;;8.07;4.83;;;10.20;99.90;;;;;;5049375;28;20655;-73
2023/04/19 12:43:14;;;;;;;5.30;3.47;;;10.20;99.90;;;;;;5054167;28;21133;-73
2023/04/19 12:45:42;;;;;;;7.57;4.80;;;10.30;99.90;;;;;;5048983;28;20662;-72
2023/04/19 12:48:08;;;;;;;9.13;5.77;;;10.20;99.90;;;;;;5047983;28;20661;-72
2023/04/19 12:50:35;;;;;;;5.33;4.70;;;10.30;99.90;;;;;;5049321;28;20667;-73
2023/04/19 12:53:02;;;;;;;10.67;5.07;;;10.20;99.90;;;;;;5049196;28;20642;-73
2023/04/19 12:55:29;;;;;;;8.33;5.70;;;10.00;99.90;;;;;;5048871;28;21238;-73
2023/04/19 12:57:56;;;;;;;7.70;4.77;;;10.00;99.90;;;;;;5049051;28;20741;-73